Littleton, NH (03561)

9:51 PM EST on January 21, 2017 (GMT -0500)
Littleton NH | | Change Station
Active Advisory: Storm Watch

Elev 1076 ft 44.29 °N, 71.79 °W | Updated 7 minutes ago

Overcast
Overcast
33.7 °F
Feels Like 34 °F
N
0.0
Wind Variable Wind from SSE
Gusts 0.0 mph

Today
High -- | Low -- °F
--% Chance of Precip.
Yesterday
High -- | Low -- °F
Precip. -- in
Pressure 29.75 in
Visibility 6.0 miles
Clouds Overcast 1000 ft
Windchill 34 °F
Dew Point 33 °F
Humidity 97%
Rainfall 0.00 in
Snow Depth Not available.
7:15 AM 4:41 PM
Waning Crescent, 30% visible
SPECI KHIE 220207Z AUTO 00000KT 6SM BR OVC010 02/00 A2975 RMK AO2 CIG 007V012 T00170000
Pressure 29.75 in
Visibility 6.0 miles
Clouds Overcast 1000 ft
Windchill 34 °F
Dew Point 33 °F
Humidity 97%
Rainfall 0.00 in
Snow Depth Not available.
7:15 AM 4:41 PM
Waning Crescent, 30% visible
SPECI KHIE 220207Z AUTO 00000KT 6SM BR OVC010 02/00 A2975 RMK AO2 CIG 007V012 T00170000

Get Your Daily Forecast Email!

Thanks for signing up!

Be on the lookout for a verification email in your inbox.

You'll start receiving the daily forecast at 8 AM.

×

10-Day Weather Forecast

Almanac

Astronomy

Jan. 21, 2017 Rise Set
Actual Time
Civil Twilight
Nautical Twilight
Astronomical Twilight
Moon
Length of Visible Light
Length of Day
Tomorrow will be .
, % of the Moon is Illuminated

Today's Extremes

State Highs State Lows

Community

WunderPhotos

Upload Photos

1,962,540 photos uploaded!

WunderBlog® & News

Nearby

Air Quality

  Air Quality AQ Index Pollutant
Not available.

Snow Depth

Station Depth Elevation

Earthquake Activity

City Distance Mag. Time & Date
Minimum magnitude displayed is 2.5.

Coastal Water Temperatures

Place Temperature

Stations

Nearby Weather Stations

Station Location Temp. Windchill Dew Point Humidity Wind Precip. Elev Updated Type
                   

Watches & Warnings

Storm Watch
Issued: 3:25 PM EST Jan. 21, 2017 – National Weather Service

... Storm watch remains in effect from Monday afternoon through
late Monday night...

* winds... east 30 to 40 kt with gusts up to 50 kt.

* Seas... 14 to 19 feet.

Precautionary/preparedness actions...

A storm watch is issued when the risk of storm force winds of
48 to 63 knots has significantly increased... but the specific
timing and/or location is still uncertain. It is intended to
provide additional lead time for mariners who may wish to
consider altering their plans.